Robinson, Kansas
Current Conditions -  °F | °C
As of 4:53 AM on Monday 22 Dec 2014 (Local Time) from KFNB Reporting Station
Light Rain Light Rain  
Wind Chill: 35°   Ceiling: 800
Heat Index: 42°   Visibility: 6mi
Dew Point: 40°   Wind: 13mph
Humidity: 92%   Direction: 150°SSE
Pressure: 29.58"   Gusts: NA
Location:  39.82°N, 95.41°W
Report Text: KFNB 221053Z AUTO 15011KT 6SM -RA BR OVC008 06/04 A2958 RMK AO2 SLP019 P0001 T00560044
Loading
Personal Weather Stations






























Interactive Weather Map New forecast layout! Learn more

10-Day Weather Forecast

Advertisements
Track Severe Weather on mobile